createdAt,value
2023-06-12T00:01:44.362Z,710.30
2023-06-12T00:04:12.824Z,754.08
2023-06-12T00:06:44.187Z,742.35
2023-06-12T00:09:13.271Z,675.25
2023-06-12T00:11:42.905Z,636.65
2023-06-12T00:14:12.229Z,656.40
2023-06-12T00:16:40.698Z,677.47
2023-06-12T00:19:08.725Z,673.30
2023-06-12T00:21:38.238Z,679.65
2023-06-12T00:24:10.096Z,643.72
2023-06-12T00:26:38.497Z,647.30
2023-06-12T00:29:06.527Z,585.25
2023-06-12T00:31:36.184Z,572.72
2023-06-12T00:34:04.167Z,580.15
2023-06-12T00:36:32.696Z,605.72
2023-06-12T00:39:00.709Z,608.17
2023-06-12T00:41:28.880Z,617.47
2023-06-12T00:43:56.879Z,655.47
2023-06-12T00:46:25.454Z,663.28
2023-06-12T00:48:55.138Z,698.15
2023-06-12T00:51:28.933Z,714.15
2023-06-12T00:53:58.107Z,708.15
2023-06-12T00:56:28.439Z,700.58
2023-06-12T00:58:57.266Z,702.03
2023-06-12T01:01:26.842Z,726.38
2023-06-12T01:03:59.269Z,716.65
2023-06-12T01:06:35.805Z,666.92
2023-06-12T01:09:09.869Z,676.70
2023-06-12T01:11:39.567Z,692.00
2023-06-12T01:14:07.909Z,705.88
2023-06-12T01:16:36.198Z,728.80
2023-06-12T01:19:06.993Z,712.40
2023-06-12T01:21:37.028Z,727.30
2023-06-12T01:24:24.145Z,699.03
2023-06-12T01:27:12.448Z,701.17
2023-06-12T01:30:03.877Z,722.45
2023-06-12T01:32:39.116Z,704.17
2023-06-12T01:35:12.927Z,714.95
2023-06-12T01:37:47.378Z,702.58
2023-06-12T01:40:18.669Z,689.75
2023-06-12T01:42:47.217Z,718.20
2023-06-12T01:45:15.899Z,685.05
2023-06-12T01:47:45.427Z,725.38
2023-06-12T01:50:14.779Z,592.03
2023-06-12T01:52:43.269Z,589.17
2023-06-12T01:55:12.135Z,601.63
2023-06-12T01:57:40.202Z,627.72
2023-06-12T02:00:10.660Z,658.47
2023-06-12T02:02:40.993Z,710.45
2023-06-12T02:05:11.132Z,719.97
2023-06-12T02:07:39.593Z,751.05
2023-06-12T02:10:08.848Z,745.55
2023-06-12T02:12:36.878Z,637.10
2023-06-12T02:15:05.991Z,621.38
2023-06-12T02:17:35.085Z,606.85
2023-06-12T02:20:04.599Z,591.40
2023-06-12T02:22:34.096Z,571.63
2023-06-12T02:25:03.262Z,586.45
2023-06-12T02:27:31.531Z,606.20
2023-06-12T02:29:59.702Z,566.45
2023-06-12T02:32:28.891Z,582.92
2023-06-12T02:34:57.179Z,627.38
2023-06-12T02:37:25.473Z,660.92
2023-06-12T02:39:54.905Z,645.75
2023-06-12T02:42:23.094Z,621.35
2023-06-12T02:44:51.050Z,625.85
2023-06-12T02:47:19.877Z,624.92
2023-06-12T02:49:48.416Z,615.83
2023-06-12T02:52:16.760Z,617.63
2023-06-12T02:54:44.796Z,636.17
2023-06-12T02:57:15.509Z,644.63
2023-06-12T02:59:43.515Z,666.10
2023-06-12T03:02:11.660Z,642.83
2023-06-12T03:04:39.864Z,601.03
2023-06-12T03:07:08.005Z,613.90
2023-06-12T03:09:38.405Z,617.55
2023-06-12T03:12:06.947Z,644.95
2023-06-12T03:14:37.759Z,624.72
2023-06-12T03:17:06.095Z,584.00
2023-06-12T03:19:34.553Z,579.58
2023-06-12T03:22:02.997Z,566.25
2023-06-12T03:24:31.453Z,575.38
2023-06-12T03:27:00.463Z,593.80
2023-06-12T03:29:28.690Z,598.17
2023-06-12T03:31:58.307Z,612.88
2023-06-12T03:34:26.693Z,599.83
2023-06-12T03:36:55.031Z,618.08
2023-06-12T03:39:23.019Z,626.22
2023-06-12T03:41:57.461Z,637.13
2023-06-12T03:44:26.305Z,661.75
2023-06-12T03:46:54.586Z,722.85
2023-06-12T03:49:24.545Z,707.97
2023-06-12T03:51:52.647Z,637.67
2023-06-12T03:54:21.558Z,677.88
2023-06-12T03:56:50.588Z,675.58
2023-06-12T03:59:20.040Z,657.55
2023-06-12T04:01:49.877Z,656.47
2023-06-12T04:04:18.346Z,618.90
2023-06-12T04:06:48.030Z,691.15
2023-06-12T04:09:17.018Z,740.03
2023-06-12T04:11:45.694Z,724.53
2023-06-12T04:14:13.814Z,749.28
2023-06-12T04:16:41.809Z,742.33
2023-06-12T04:19:10.507Z,690.60
2023-06-12T04:21:39.197Z,718.92
2023-06-12T04:24:14.556Z,736.70
2023-06-12T04:26:43.023Z,715.53
2023-06-12T04:29:11.182Z,703.70
2023-06-12T04:31:39.601Z,686.22
2023-06-12T04:34:08.638Z,709.30
2023-06-12T04:36:39.074Z,680.47
2023-06-12T04:39:12.880Z,679.38
2023-06-12T04:41:42.644Z,653.95
2023-06-12T04:44:10.650Z,601.97
2023-06-12T04:46:38.717Z,609.05
2023-06-12T04:49:07.081Z,647.58
2023-06-12T04:51:35.157Z,666.50
2023-06-12T04:54:06.066Z,679.80
2023-06-12T04:56:35.814Z,719.45
2023-06-12T04:59:03.934Z,712.90
2023-06-12T05:01:34.548Z,739.47
2023-06-12T05:04:04.092Z,730.95
2023-06-12T05:06:34.196Z,728.05
2023-06-12T05:09:07.023Z,699.88
2023-06-12T05:11:36.580Z,723.70
2023-06-12T05:14:04.838Z,678.92
2023-06-12T05:16:33.678Z,647.17
2023-06-12T05:19:01.960Z,641.67
2023-06-12T05:21:30.015Z,710.58
2023-06-12T05:23:58.415Z,677.35
2023-06-12T05:26:26.590Z,703.90
2023-06-12T05:28:56.052Z,685.78
2023-06-12T05:31:24.544Z,714.75
2023-06-12T05:33:52.796Z,711.53
2023-06-12T05:36:21.093Z,700.78
2023-06-12T05:38:49.754Z,676.50
2023-06-12T05:41:19.100Z,711.85
2023-06-12T05:43:48.404Z,651.65
2023-06-12T05:46:26.106Z,662.90
2023-06-12T05:48:56.428Z,660.60
2023-06-12T05:51:24.490Z,643.63
2023-06-12T05:53:52.897Z,671.63
2023-06-12T05:56:21.931Z,682.13
2023-06-12T05:58:50.158Z,650.67
2023-06-12T06:01:23.342Z,657.63
2023-06-12T06:03:52.399Z,738.95
2023-06-12T06:06:20.706Z,734.75
2023-06-12T06:08:48.759Z,685.50
2023-06-12T06:11:16.839Z,674.53
2023-06-12T06:13:45.798Z,733.55
2023-06-12T06:16:14.212Z,622.72
2023-06-12T06:18:43.945Z,730.30
2023-06-12T06:21:12.765Z,726.70
2023-06-12T06:23:42.107Z,681.17
2023-06-12T06:26:11.000Z,734.58
2023-06-12T06:28:39.153Z,703.72
2023-06-12T06:31:09.004Z,728.10
2023-06-12T06:33:37.786Z,725.10
2023-06-12T06:36:08.103Z,737.53
2023-06-12T06:38:36.083Z,734.38
2023-06-12T06:41:04.533Z,657.00
2023-06-12T06:43:32.576Z,646.03
2023-06-12T06:46:00.984Z,664.33
2023-06-12T06:48:29.065Z,675.03
2023-06-12T06:50:58.338Z,716.25
2023-06-12T06:53:27.755Z,748.80
2023-06-12T06:55:55.789Z,720.13
2023-06-12T06:58:23.770Z,672.17
2023-06-12T07:00:51.761Z,684.45
2023-06-12T07:03:20.258Z,747.00
2023-06-12T07:05:48.527Z,738.45
2023-06-12T07:08:16.714Z,761.80
2023-06-12T07:10:46.161Z,618.15
2023-06-12T07:13:14.781Z,748.72
2023-06-12T07:15:43.159Z,695.83
2023-06-12T07:18:12.560Z,702.58
2023-06-12T07:20:41.229Z,686.55
2023-06-12T07:23:09.357Z,683.67
2023-06-12T07:25:37.376Z,650.70
2023-06-12T07:28:06.988Z,659.05
2023-06-12T07:30:35.603Z,694.30
2023-06-12T07:33:04.097Z,722.47
2023-06-12T07:35:32.168Z,749.88
2023-06-12T07:38:00.737Z,740.63
2023-06-12T07:40:29.235Z,754.55
2023-06-12T07:42:57.421Z,679.88
2023-06-12T07:45:26.988Z,682.50
2023-06-12T07:47:56.847Z,687.40
2023-06-12T07:50:24.906Z,694.90
2023-06-12T07:52:53.134Z,653.20
2023-06-12T07:55:21.214Z,555.45
2023-06-12T07:57:50.898Z,569.05
2023-06-12T08:00:19.256Z,601.30
2023-06-12T08:02:59.488Z,551.72
2023-06-12T08:05:28.096Z,621.15
2023-06-12T08:07:56.639Z,624.85
2023-06-12T08:10:24.787Z,712.53
2023-06-12T08:12:53.774Z,679.97
2023-06-12T08:15:23.034Z,743.88
2023-06-12T08:17:52.719Z,691.40
2023-06-12T08:20:20.953Z,691.70
2023-06-12T08:22:49.626Z,587.90
2023-06-12T08:25:17.587Z,628.13
2023-06-12T08:27:46.059Z,636.17
2023-06-12T08:30:16.168Z,630.00
2023-06-12T08:32:44.594Z,640.13
2023-06-12T08:35:16.474Z,632.20
2023-06-12T08:37:45.282Z,689.50
2023-06-12T08:40:13.625Z,687.80
2023-06-12T08:42:51.175Z,677.10
2023-06-12T08:45:22.549Z,702.95
2023-06-12T08:47:51.946Z,681.28
2023-06-12T08:50:22.387Z,627.92
2023-06-12T08:52:51.869Z,689.67
2023-06-12T08:55:22.845Z,676.30
2023-06-12T08:57:50.948Z,659.83
2023-06-12T09:00:20.557Z,622.22
2023-06-12T09:02:54.019Z,620.17
2023-06-12T09:05:26.962Z,622.83
2023-06-12T09:07:55.556Z,641.78
2023-06-12T09:10:23.569Z,658.33
2023-06-12T09:12:56.656Z,688.42
2023-06-12T09:15:25.420Z,691.67
2023-06-12T09:17:54.922Z,661.83
2023-06-12T09:20:41.685Z,682.50
2023-06-12T09:23:13.169Z,724.80
2023-06-12T09:25:47.469Z,746.50
2023-06-12T09:28:32.681Z,671.90
2023-06-12T09:31:01.425Z,735.30
2023-06-12T09:33:30.247Z,745.78
2023-06-12T09:36:01.667Z,667.67
2023-06-12T09:38:33.240Z,706.17
2023-06-12T09:41:02.904Z,663.30
2023-06-12T09:43:31.227Z,666.15
2023-06-12T09:46:00.335Z,720.70
2023-06-12T09:48:33.612Z,674.20
2023-06-12T09:51:08.442Z,637.47
2023-06-12T09:53:41.550Z,537.78
2023-06-12T09:56:11.453Z,557.40
2023-06-12T09:58:40.937Z,569.63
2023-06-12T10:01:09.832Z,572.28
2023-06-12T10:03:40.829Z,593.53
2023-06-12T10:06:13.203Z,575.35
2023-06-12T10:08:42.116Z,607.15
2023-06-12T10:11:11.835Z,615.85
2023-06-12T10:13:41.327Z,600.00
2023-06-12T10:16:10.212Z,598.97
2023-06-12T10:18:38.634Z,625.13
2023-06-12T10:21:08.170Z,605.38
2023-06-12T10:23:39.189Z,611.17
2023-06-12T10:26:07.863Z,608.45
2023-06-12T10:28:37.081Z,669.13
2023-06-12T10:31:14.133Z,710.38
2023-06-12T10:33:58.860Z,666.75
2023-06-12T10:36:29.185Z,645.80
2023-06-12T10:39:06.601Z,643.63
2023-06-12T10:41:35.114Z,653.97
2023-06-12T10:44:24.898Z,631.45
2023-06-12T10:46:54.363Z,615.72
2023-06-12T10:49:22.688Z,622.17
2023-06-12T10:51:51.009Z,663.42
2023-06-12T10:54:27.107Z,662.28
2023-06-12T10:56:59.303Z,703.50
2023-06-12T10:59:36.705Z,721.03
2023-06-12T11:02:05.497Z,721.15
2023-06-12T11:04:38.772Z,735.13
2023-06-12T11:07:07.914Z,718.80
2023-06-12T11:09:42.814Z,736.85
2023-06-12T11:12:11.371Z,727.40
2023-06-12T11:14:39.521Z,731.70
2023-06-12T11:17:08.059Z,725.17
2023-06-12T11:19:36.136Z,760.67
2023-06-12T11:22:05.799Z,730.97
2023-06-12T11:24:34.109Z,757.70
2023-06-12T11:27:04.016Z,744.88
2023-06-12T11:29:52.539Z,752.15
2023-06-12T11:32:24.647Z,734.67
2023-06-12T11:34:54.189Z,718.80
2023-06-12T11:37:26.696Z,747.20
2023-06-12T11:40:02.408Z,737.33
2023-06-12T11:42:31.792Z,738.35
2023-06-12T11:44:59.766Z,732.85
2023-06-12T11:49:59.304Z,746.35
2023-06-12T11:52:27.474Z,744.92
2023-06-12T11:57:35.055Z,745.53
2023-06-12T12:00:13.373Z,730.20
2023-06-12T12:02:44.630Z,742.25
2023-06-12T12:05:15.291Z,716.63
2023-06-12T12:07:46.702Z,721.92
2023-06-12T12:10:15.906Z,670.10
2023-06-12T12:12:47.092Z,681.50
2023-06-12T12:15:17.162Z,714.58
2023-06-12T12:17:48.447Z,709.72
2023-06-12T12:20:20.301Z,708.78
2023-06-12T12:22:49.967Z,708.83
2023-06-12T12:25:21.356Z,678.03
2023-06-12T12:27:52.488Z,678.42
2023-06-12T12:30:22.316Z,702.25
2023-06-12T12:32:52.777Z,725.67
2023-06-12T12:35:21.478Z,680.92
2023-06-12T12:37:51.688Z,707.90
2023-06-12T12:40:20.296Z,674.03
2023-06-12T12:42:50.675Z,698.85
2023-06-12T12:45:20.082Z,670.17
2023-06-12T12:47:49.702Z,642.55
2023-06-12T12:50:22.554Z,655.40
2023-06-12T12:52:53.521Z,614.60
2023-06-12T12:55:21.506Z,603.95
2023-06-12T12:57:59.504Z,657.33
2023-06-12T13:00:30.735Z,661.03
2023-06-12T13:02:59.262Z,672.20
2023-06-12T13:05:27.318Z,670.83
2023-06-12T13:07:56.463Z,706.58
2023-06-12T13:10:24.571Z,734.53
2023-06-12T13:12:53.932Z,737.15
2023-06-12T13:15:22.490Z,692.30
2023-06-12T13:17:52.424Z,684.42
2023-06-12T13:20:20.672Z,696.33
2023-06-12T13:22:48.591Z,761.33
2023-06-12T13:25:18.890Z,670.00
2023-06-12T13:27:47.238Z,692.97
2023-06-12T13:30:16.882Z,694.00
2023-06-12T13:32:44.913Z,663.92
2023-06-12T13:35:12.962Z,631.35
2023-06-12T13:37:41.965Z,690.58
2023-06-12T13:40:14.500Z,714.00
2023-06-12T13:42:44.745Z,681.33
2023-06-12T13:45:14.640Z,706.63
2023-06-12T13:47:47.340Z,725.30
2023-06-12T13:50:16.203Z,739.63
2023-06-12T13:52:44.565Z,731.40
2023-06-12T13:55:12.690Z,716.45
2023-06-12T13:57:44.387Z,703.95
2023-06-12T14:00:14.103Z,696.50
2023-06-12T14:02:43.898Z,726.22
2023-06-12T14:05:12.943Z,746.97
2023-06-12T14:07:41.776Z,708.85
2023-06-12T14:10:11.544Z,683.95
2023-06-12T14:12:40.229Z,715.22
2023-06-12T14:15:09.825Z,760.10
2023-06-12T14:17:38.181Z,729.60
2023-06-12T14:20:09.032Z,697.70
2023-06-12T14:22:37.075Z,735.80
2023-06-12T14:25:05.673Z,766.08
2023-06-12T14:27:33.836Z,682.33
2023-06-12T14:30:01.855Z,597.95
2023-06-12T14:32:30.225Z,668.00
2023-06-12T14:34:58.354Z,735.85
2023-06-12T14:37:27.809Z,753.72
2023-06-12T14:39:56.186Z,735.33
2023-06-12T14:42:27.158Z,758.83
2023-06-12T14:44:56.121Z,771.80
2023-06-12T14:47:24.128Z,757.10
2023-06-12T14:49:52.210Z,689.97
2023-06-12T14:54:54.463Z,687.38
2023-06-12T14:57:22.908Z,670.90
2023-06-12T14:59:50.969Z,726.00
2023-06-12T15:02:19.065Z,636.75
2023-06-12T15:04:47.409Z,715.00
2023-06-12T15:07:15.597Z,719.58
2023-06-12T15:09:44.876Z,674.97
2023-06-12T15:12:14.513Z,655.90
2023-06-12T15:14:42.547Z,685.55
2023-06-12T15:17:10.939Z,688.13
2023-06-12T15:19:39.237Z,670.90
2023-06-12T15:22:07.987Z,730.40
2023-06-12T15:24:36.266Z,714.45
2023-06-12T15:27:04.778Z,650.28
2023-06-12T15:29:34.527Z,711.95
2023-06-12T15:32:05.958Z,708.88
2023-06-12T15:34:34.475Z,732.65
2023-06-12T15:37:02.666Z,717.42
2023-06-12T15:39:30.875Z,773.75
2023-06-12T15:42:01.024Z,668.30
2023-06-12T15:44:31.197Z,658.03
2023-06-12T15:47:01.010Z,676.90
2023-06-12T15:49:29.357Z,756.58
2023-06-12T15:51:57.598Z,744.53
2023-06-12T15:54:25.802Z,697.75
2023-06-12T15:56:54.182Z,732.72
2023-06-12T15:59:22.618Z,737.55
2023-06-12T16:01:53.539Z,674.00
2023-06-12T16:04:22.973Z,655.88
2023-06-12T16:06:51.378Z,662.00
2023-06-12T16:09:20.146Z,683.75
2023-06-12T16:11:49.043Z,655.28
2023-06-12T16:14:17.692Z,656.85
2023-06-12T16:16:47.042Z,632.28
2023-06-12T16:19:15.289Z,632.22
2023-06-12T16:21:44.732Z,678.05
2023-06-12T16:24:12.775Z,698.13
2023-06-12T16:26:42.955Z,661.10
2023-06-12T16:29:11.009Z,578.38
2023-06-12T16:31:39.239Z,616.10
2023-06-12T16:34:07.590Z,591.08
2023-06-12T16:36:36.372Z,569.65
2023-06-12T16:39:06.069Z,513.90
2023-06-12T16:41:34.241Z,609.83
2023-06-12T16:44:02.515Z,639.50
2023-06-12T16:46:30.680Z,677.90
2023-06-12T16:48:58.942Z,663.10
2023-06-12T16:51:27.049Z,729.97
2023-06-12T16:53:56.080Z,742.20
2023-06-12T16:56:25.456Z,607.50
2023-06-12T16:58:53.584Z,663.63
2023-06-12T17:01:21.801Z,574.53
2023-06-12T17:03:50.206Z,678.75
2023-06-12T17:06:18.343Z,698.03
2023-06-12T17:08:46.721Z,765.78
2023-06-12T17:11:17.172Z,738.22
2023-06-12T17:13:46.628Z,811.17
2023-06-12T17:16:15.002Z,765.95
2023-06-12T17:18:43.394Z,779.67
2023-06-12T17:21:11.799Z,653.33
2023-06-12T17:23:40.004Z,670.67
2023-06-12T17:26:08.111Z,727.05
2023-06-12T17:28:36.370Z,776.95
2023-06-12T17:31:05.988Z,752.28
2023-06-12T17:33:34.700Z,753.25
2023-06-12T17:36:04.733Z,733.38
2023-06-12T17:38:32.971Z,727.22
2023-06-12T17:41:01.051Z,726.45
2023-06-12T17:43:29.824Z,779.22
2023-06-12T17:45:58.326Z,708.90
2023-06-12T17:48:27.943Z,731.83
2023-06-12T17:50:56.172Z,642.35
2023-06-12T17:53:24.201Z,626.60
2023-06-12T17:55:52.870Z,644.33
2023-06-12T17:58:21.009Z,639.72
2023-06-12T18:00:49.408Z,648.33
2023-06-12T18:03:19.059Z,723.28
2023-06-12T18:05:51.831Z,659.20
2023-06-12T18:08:20.997Z,632.28
2023-06-12T18:10:49.471Z,670.85
2023-06-12T18:13:20.573Z,669.35
2023-06-12T18:15:51.397Z,638.33
2023-06-12T18:18:20.114Z,632.38
2023-06-12T18:20:50.156Z,651.17
2023-06-12T18:23:18.329Z,611.72
2023-06-12T18:25:46.681Z,603.83
2023-06-12T18:28:15.545Z,609.38
2023-06-12T18:30:44.465Z,601.60
2023-06-12T18:33:12.939Z,643.58
2023-06-12T18:35:41.620Z,642.38
2023-06-12T18:38:11.309Z,708.17
2023-06-12T18:40:45.249Z,716.00
2023-06-12T18:43:18.178Z,690.80
2023-06-12T18:45:48.403Z,620.92
2023-06-12T18:48:16.720Z,651.20
2023-06-12T18:50:44.907Z,710.72
2023-06-12T18:53:15.374Z,711.45
2023-06-12T18:55:43.943Z,704.28
2023-06-12T18:58:12.076Z,688.50
2023-06-12T19:00:40.787Z,710.35
2023-06-12T19:03:09.190Z,672.22
2023-06-12T19:05:37.508Z,654.75
2023-06-12T19:08:05.466Z,633.60
2023-06-12T19:10:36.214Z,658.35
2023-06-12T19:13:04.518Z,603.97
2023-06-12T19:15:32.777Z,613.00
2023-06-12T19:18:02.105Z,601.53
2023-06-12T19:20:30.251Z,617.25
2023-06-12T19:22:58.507Z,622.80
2023-06-12T19:25:26.819Z,569.15
2023-06-12T19:27:59.795Z,602.38
2023-06-12T19:30:28.165Z,620.22
2023-06-12T19:32:58.194Z,592.72
2023-06-12T19:35:26.260Z,592.40
2023-06-12T19:37:54.203Z,621.55
2023-06-12T19:40:22.328Z,545.08
2023-06-12T19:42:50.476Z,368.00
2023-06-12T19:45:24.116Z,336.27
2023-06-12T19:47:52.697Z,434.55
2023-06-12T19:50:22.153Z,539.95
2023-06-12T19:52:50.799Z,600.70
2023-06-12T19:55:18.948Z,610.95
2023-06-12T19:57:47.364Z,623.70
2023-06-12T20:00:17.036Z,631.63
2023-06-12T20:02:49.158Z,626.50
2023-06-12T20:05:18.869Z,618.75
2023-06-12T20:07:48.607Z,619.38
2023-06-12T20:10:17.217Z,629.08
2023-06-12T20:12:45.687Z,640.92
2023-06-12T20:15:13.922Z,653.85
2023-06-12T20:17:42.310Z,660.20
2023-06-12T20:20:12.577Z,641.28
2023-06-12T20:22:40.938Z,683.67
2023-06-12T20:25:11.559Z,739.78
2023-06-12T20:27:41.125Z,721.10
2023-06-12T20:30:10.622Z,729.70
2023-06-12T20:32:38.888Z,727.45
2023-06-12T20:35:07.859Z,732.78
2023-06-12T20:37:38.559Z,703.97
2023-06-12T20:40:07.594Z,661.80
2023-06-12T20:42:35.740Z,392.88
2023-06-12T20:45:03.905Z,595.00
2023-06-12T20:47:31.914Z,656.55
2023-06-12T20:50:00.192Z,704.42
2023-06-12T20:52:28.611Z,731.03
2023-06-12T20:54:58.244Z,766.03
2023-06-12T20:57:26.317Z,759.60
2023-06-12T20:59:54.307Z,778.92
2023-06-12T21:02:22.498Z,742.28
2023-06-12T21:04:50.987Z,709.05
2023-06-12T21:07:20.027Z,659.67
2023-06-12T21:09:49.052Z,700.58
2023-06-12T21:12:18.373Z,745.25
2023-06-12T21:14:46.681Z,720.72
2023-06-12T21:17:15.093Z,726.13
2023-06-12T21:19:44.956Z,721.50
2023-06-12T21:22:13.275Z,748.65
2023-06-12T21:24:41.633Z,749.78
2023-06-12T21:27:09.591Z,710.95
2023-06-12T21:29:39.259Z,706.83
2023-06-12T21:32:08.790Z,752.45
2023-06-12T21:34:36.883Z,654.35
2023-06-12T21:37:21.486Z,683.78
2023-06-12T21:39:51.478Z,757.58
2023-06-12T21:42:20.394Z,709.35
2023-06-12T21:44:50.189Z,709.78
2023-06-12T21:47:18.323Z,647.00
2023-06-12T21:49:46.329Z,639.55
2023-06-12T21:52:14.976Z,594.58
2023-06-12T21:54:42.979Z,610.72
2023-06-12T21:57:12.720Z,581.00
2023-06-12T21:59:40.833Z,431.48
2023-06-12T22:02:10.248Z,421.73
2023-06-12T22:04:38.466Z,456.45
2023-06-12T22:07:07.009Z,627.65
2023-06-12T22:09:35.289Z,640.45
2023-06-12T22:12:03.348Z,719.15
2023-06-12T22:14:31.414Z,697.70
2023-06-12T22:16:59.665Z,726.25
2023-06-12T22:19:29.191Z,728.30
2023-06-12T22:21:57.414Z,743.88
2023-06-12T22:24:25.570Z,742.67
2023-06-12T22:26:53.888Z,731.60
2023-06-12T22:29:21.865Z,744.90
2023-06-12T22:31:50.375Z,721.83
2023-06-12T22:34:18.527Z,716.05
2023-06-12T22:36:48.122Z,719.97
2023-06-12T22:39:16.791Z,729.75
2023-06-12T22:41:45.103Z,734.00
2023-06-12T22:44:13.314Z,651.92
2023-06-12T22:46:42.005Z,636.58
2023-06-12T22:49:12.026Z,613.05
2023-06-12T22:51:40.048Z,639.90
2023-06-12T22:54:09.973Z,429.85
2023-06-12T22:56:38.223Z,260.08
2023-06-12T22:59:06.574Z,590.53
2023-06-12T23:01:34.939Z,740.85
2023-06-12T23:04:02.943Z,710.15
2023-06-12T23:06:32.913Z,699.03
2023-06-12T23:09:01.327Z,655.85
2023-06-12T23:11:30.989Z,708.80
2023-06-12T23:13:59.184Z,740.35
2023-06-12T23:16:29.241Z,630.75
2023-06-12T23:18:57.649Z,588.20
2023-06-12T23:21:25.829Z,630.58
2023-06-12T23:23:56.028Z,648.08
2023-06-12T23:26:29.875Z,694.47
2023-06-12T23:28:59.356Z,682.13
2023-06-12T23:31:28.047Z,713.22
2023-06-12T23:33:56.561Z,677.53
2023-06-12T23:36:24.941Z,635.88
2023-06-12T23:38:52.979Z,611.75
2023-06-12T23:41:20.993Z,677.40
2023-06-12T23:43:49.150Z,729.55
2023-06-12T23:46:19.234Z,701.42
2023-06-12T23:48:47.527Z,715.70
2023-06-12T23:51:16.807Z,732.55
2023-06-12T23:53:44.841Z,706.53
2023-06-12T23:56:14.538Z,743.88
2023-06-12T23:58:42.749Z,745.92
